This is the latest recevied weather packets stored in our database for station/object G6UYG-13. If no packets are shown the sender has not sent any weather packets the latest 1 day(s).
| Time | Temp. | Humidity | Pressure | Rain* | Wind** | Luminosity | Snow |
|---|---|---|---|---|---|---|---|
| 1778011353 | 10.56° C | 74% | 1012.7 hPa | 0 mm | 0.45 m/s, 47° | 0 W/m² | - |
| 1778010933 | 10.56° C | 74% | 1012.7 hPa | 0 mm | 0.89 m/s, 44° | 0 W/m² | - |
| 1778010513 | 10.56° C | 73% | 1012.7 hPa | 0 mm | 0.89 m/s, 34° | 0 W/m² | - |
| 1778010093 | 10.56° C | 73% | 1012.5 hPa | 0 mm | 0.89 m/s, 63° | 0 W/m² | - |
| 1778009673 | 10.56° C | 73% | 1012.5 hPa | 0 mm | 0.89 m/s, 56° | 7 W/m² | - |
| 1778009253 | 11.11° C | 73% | 1012.4 hPa | 0 mm | 0.89 m/s, 45° | 11 W/m² | - |
| 1778008833 | 11.11° C | 72% | 1012.4 hPa | 0 mm | 1.34 m/s, 63° | 14 W/m² | - |
| 1778008413 | 11.11° C | 72% | 1012.3 hPa | 0 mm | 0.89 m/s, 89° | 19 W/m² | - |
| 1778008072 | 11.11° C | 72% | 1012.2 hPa | 0 mm | 0.45 m/s, 65° | 25 W/m² | - |
| 1778007993 | 11.11° C | 72% | 1012.2 hPa | 0 mm | 0.45 m/s, 65° | 25 W/m² | - |
| 1778007573 | 11.11° C | 73% | 1012.2 hPa | 0 mm | 0.45 m/s, 65° | 32 W/m² | - |
| 1778007153 | 11.11° C | 74% | 1012.2 hPa | 0 mm | 0 m/s | 39 W/m² | - |
| 1778006733 | 11.11° C | 74% | 1012.2 hPa | 0 mm | 0 m/s | 46 W/m² | - |
| 1778006313 | 11.11° C | 74% | 1012.1 hPa | 0 mm | 0 m/s | 42 W/m² | - |
| 1778005893 | 11.11° C | 74% | 1012.1 hPa | 0 mm | 0 m/s | 40 W/m² | - |
| 1778005473 | 11.11° C | 75% | 1012.1 hPa | 0 mm | 0 m/s | 39 W/m² | - |
| 1778005053 | 11.11° C | 75% | 1012 hPa | 0 mm | 0 m/s | 44 W/m² | - |
| 1778004633 | 11.11° C | 75% | 1012.2 hPa | 0 mm | 0 m/s | 46 W/m² | - |
| 1778004213 | 11.11° C | 76% | 1012.1 hPa | 0 mm | 0 m/s | 51 W/m² | - |
| 1778003793 | 11.11° C | 76% | 1012.1 hPa | 0 mm | 0 m/s | 62 W/m² | - |
| 1778003373 | 11.11° C | 76% | 1012.2 hPa | 0 mm | 0.45 m/s, 294° | 69 W/m² | - |
| 1778002953 | 11.11° C | 76% | 1012.2 hPa | 0 mm | 0.45 m/s, 71° | 70 W/m² | - |
| 1778002533 | 11.11° C | 76% | 1012.2 hPa | 0 mm | 0.45 m/s, 73° | 65 W/m² | - |
| 1778002149 | 11.11° C | 75% | 1012.2 hPa | 0 mm | 0.45 m/s, 5° | 58 W/m² | - |
| 1778002113 | 11.11° C | 75% | 1012.2 hPa | 0 mm | 0.45 m/s, 5° | 58 W/m² | - |
* Rain latest hour (hover to see other rain measurements)
** Current wind speed in m/s (hover to see current wind gust speed)